Funds performance table by strategy

help icon
fund name 1 mth 3 mth 12 mth ytd Inception Net assets Return Datesort icon
MIDAS RP Div 40 Fdr Bd Bal 1 C 1% 3% 7% 6% 7% 4295M 2015-06-30
Eastspring RP Industry Leaders Fdr Eq C 0% 8% 20% 19% 11% 4295M 2015-06-30
MiraeAsset RP 40 Fdr Bd Bal 1 C 0% 1% 6% 5% 6% 4295M 2015-06-30
Eastspring RP First-class40 Fdr BdBal C 0% 2% 11% 8% 7% 4295M 2015-06-30
MiraeAsset RP Solomon 40 Fdr Bal 1 C 0% 1% 6% 5% 6% 4295M 2015-06-30
Hyundai HR-HomeRun Equity 1 CW -1% 5% 17% 15% 9% 1074M 2015-06-30
MiraeAsset Retirement Plan Fdr Eq 1 C -1% 5% 10% 12% 6% 4295M 2015-06-30
MiraeAsset RP Short-term Fdr Bond 1 C 0% 0% 2% 1% 4% 2027M 2015-06-30
Old Mutual World Equity I USD Acc -2% 0% 6% 4% 15% 156M 2015-06-30
Allianz KOSPI200 Index Fdr Eq-Deriv CF -2% -1% 0% 3% 4% 4295M 2015-06-30
Deutsche Agribusiness Feeder Equity CI -1% 2% 1% 3% 2% 4295M 2015-06-30
Deutsche Europe Feeder Equity CI -4% -3% 13% 10% 1% 4295M 2015-06-30
Heungkuk Multi-play 30 IPO Fdr Bd Bal Ci 0% 0% 4% 1% 4% 4295M 2015-06-30
Hyundai Hyundai-Group Plus Equity 1 Cw -9% -8% -18% -8% 6% 4295M 2015-06-30
Dongbu Together Corporate MMF 1 W 0% 0% 2% 1% 0% 4295M 2015-06-30
Franklin Opportunity Feeder Equity CF 10% 26% 55% 45% 15% 4295M 2015-06-30
Allianz Company Val Creat LT Fdr Eq I 2% 8% 14% 16% 4% 4295M 2015-06-30
Deutsche Brussia Feeder Equity CI -2% 4% -25% 0% -6% 4295M 2015-06-30
UBSHana WinWin Ace Equity E26 C2 2% 7% 10% 15% 10% 3066M 2015-06-30
Deutsche Asia 50 Feeder Equity CI -4% 2% 14% 7% 4% 4295M 2015-06-30
MiraeAsset Emerging Focus 30 Eq 1 F -1% 0% 7% 8% 3% 4295M 2015-06-30
KIM Navigator Equity 1 CF 0% 5% 14% 16% 15% 4295M 2015-06-30
KyoboAXA Power KRX100 Idx Eq-Deriv 1 Af -3% -1% -3% 2% 2% 4295M 2015-06-30
MiraeAsset Solomon LT Govt Bd Fdr Bd1 F 0% 0% 5% 1% 6% 4295M 2015-06-30
KyoboAXA Power BRICs Convs Fdr Eq 1 Af -3% 4% 10% 7% 0% 4295M 2015-06-30
MiraeAsset Rogers Agrclt Idx SA Deriv I 5% 1% -15% -7% -6% 4295M 2015-06-30
Eastspring Inflation Prot Fdr Bd CF 0% 0% 2% 1% 3% 4295M 2015-06-30
Eastspring Korea Index Feeder Equity CF -2% -1% -1% 3% 10% 4295M 2015-06-30
MiraeAsset Japan Index Equity-Deriv 1 I -1% 4% 33% 16% 12% 4295M 2015-06-30
NH-CA 1.5x Leverage Index Eq-Deriv Cw -5% -3% -4% 4% 5% 4295M 2015-06-30

All our data is licensed from Morningstar UK Ltd. Important legal information